sensor_id;sensor_type;location;lat;lon;timestamp;temperature;humidity
4964;DHT22;2497;47.410;9.740;2023-02-26T00:00:58;1.00;99.90
4964;DHT22;2497;47.410;9.740;2023-02-26T00:03:25;1.00;99.90
4964;DHT22;2497;47.410;9.740;2023-02-26T00:05:58;0.90;99.90
4964;DHT22;2497;47.410;9.740;2023-02-26T00:08:26;0.90;99.90
4964;DHT22;2497;47.410;9.740;2023-02-26T00:10:56;0.90;99.90
4964;DHT22;2497;47.410;9.740;2023-02-26T00:13:25;0.90;99.90
4964;DHT22;2497;47.410;9.740;2023-02-26T00:15:55;0.90;99.90
4964;DHT22;2497;47.410;9.740;2023-02-26T00:18:24;0.90;99.90
4964;DHT22;2497;47.410;9.740;2023-02-26T00:20:54;0.80;99.90
4964;DHT22;2497;47.410;9.740;2023-02-26T00:23:22;0.80;99.90
4964;DHT22;2497;47.410;9.740;2023-02-26T00:25:51;0.80;99.90
4964;DHT22;2497;47.410;9.740;2023-02-26T00:28:19;0.80;99.90
4964;DHT22;2497;47.410;9.740;2023-02-26T00:30:48;0.80;99.90
4964;DHT22;2497;47.410;9.740;2023-02-26T00:33:16;0.70;99.90
4964;DHT22;2497;47.410;9.740;2023-02-26T00:35:43;0.70;99.90
4964;DHT22;2497;47.410;9.740;2023-02-26T00:38:13;0.60;99.90
4964;DHT22;2497;47.410;9.740;2023-02-26T00:40:44;0.60;99.90
4964;DHT22;2497;47.410;9.740;2023-02-26T00:43:15;0.60;99.90
4964;DHT22;2497;47.410;9.740;2023-02-26T00:45:46;0.60;99.90
4964;DHT22;2497;47.410;9.740;2023-02-26T00:48:35;0.50;99.90
4964;DHT22;2497;47.410;9.740;2023-02-26T00:51:16;0.50;99.90
4964;DHT22;2497;47.410;9.740;2023-02-26T00:53:52;0.50;99.90
4964;DHT22;2497;47.410;9.740;2023-02-26T00:56:21;0.50;99.90
4964;DHT22;2497;47.410;9.740;2023-02-26T00:58:48;0.50;99.90
4964;DHT22;2497;47.410;9.740;2023-02-26T01:01:15;0.50;99.90
4964;DHT22;2497;47.410;9.740;2023-02-26T01:03:42;0.50;99.90
4964;DHT22;2497;47.410;9.740;2023-02-26T01:06:12;0.50;99.90
4964;DHT22;2497;47.410;9.740;2023-02-26T01:08:46;0.50;99.90
4964;DHT22;2497;47.410;9.740;2023-02-26T01:11:16;0.50;99.90
4964;DHT22;2497;47.410;9.740;2023-02-26T01:13:46;0.50;99.90
4964;DHT22;2497;47.410;9.740;2023-02-26T01:16:20;0.40;99.90
4964;DHT22;2497;47.410;9.740;2023-02-26T01:18:55;0.40;99.90
4964;DHT22;2497;47.410;9.740;2023-02-26T01:21:31;0.30;99.90
4964;DHT22;2497;47.410;9.740;2023-02-26T01:24:01;0.30;99.90
4964;DHT22;2497;47.410;9.740;2023-02-26T01:26:33;0.20;99.90
4964;DHT22;2497;47.410;9.740;2023-02-26T01:29:00;0.20;99.90
4964;DHT22;2497;47.410;9.740;2023-02-26T01:31:39;0.20;99.90
4964;DHT22;2497;47.410;9.740;2023-02-26T01:34:14;0.10;99.90
4964;DHT22;2497;47.410;9.740;2023-02-26T01:36:49;0.10;99.90
4964;DHT22;2497;47.410;9.740;2023-02-26T01:39:25;0.10;99.90
4964;DHT22;2497;47.410;9.740;2023-02-26T01:41:58;0.10;99.90
4964;DHT22;2497;47.410;9.740;2023-02-26T01:44:32;0.20;99.90
4964;DHT22;2497;47.410;9.740;2023-02-26T01:47:16;0.20;99.90
4964;DHT22;2497;47.410;9.740;2023-02-26T01:49:44;0.20;99.90
4964;DHT22;2497;47.410;9.740;2023-02-26T01:55:28;0.20;99.90
4964;DHT22;2497;47.410;9.740;2023-02-26T01:57:58;0.30;99.90
4964;DHT22;2497;47.410;9.740;2023-02-26T02:00:28;0.20;99.90
4964;DHT22;2497;47.410;9.740;2023-02-26T02:02:56;0.20;99.90
4964;DHT22;2497;47.410;9.740;2023-02-26T02:05:27;0.30;99.90
4964;DHT22;2497;47.410;9.740;2023-02-26T02:07:55;0.30;99.90
4964;DHT22;2497;47.410;9.740;2023-02-26T02:10:23;0.40;99.90
4964;DHT22;2497;47.410;9.740;2023-02-26T02:12:59;0.30;99.90
4964;DHT22;2497;47.410;9.740;2023-02-26T02:15:37;0.30;99.90
4964;DHT22;2497;47.410;9.740;2023-02-26T02:18:11;0.20;99.90
4964;DHT22;2497;47.410;9.740;2023-02-26T02:24:02;0.10;99.90
4964;DHT22;2497;47.410;9.740;2023-02-26T02:26:52;0.10;99.90
4964;DHT22;2497;47.410;9.740;2023-02-26T02:30:08;0.10;99.90
4964;DHT22;2497;47.410;9.740;2023-02-26T02:32:43;0.00;99.90
4964;DHT22;2497;47.410;9.740;2023-02-26T02:35:17;0.00;99.90
4964;DHT22;2497;47.410;9.740;2023-02-26T02:37:50;-0.10;99.90
4964;DHT22;2497;47.410;9.740;2023-02-26T02:40:22;0.00;99.90
4964;DHT22;2497;47.410;9.740;2023-02-26T02:42:54;-0.10;99.90
4964;DHT22;2497;47.410;9.740;2023-02-26T02:45:26;-0.10;99.90
4964;DHT22;2497;47.410;9.740;2023-02-26T02:48:01;-0.10;99.90
4964;DHT22;2497;47.410;9.740;2023-02-26T02:50:33;-0.10;99.90
4964;DHT22;2497;47.410;9.740;2023-02-26T02:53:04;-0.10;99.90
4964;DHT22;2497;47.410;9.740;2023-02-26T02:55:35;-0.10;99.90
4964;DHT22;2497;47.410;9.740;2023-02-26T02:58:05;-0.20;99.90
4964;DHT22;2497;47.410;9.740;2023-02-26T03:00:37;-0.10;99.90
4964;DHT22;2497;47.410;9.740;2023-02-26T03:03:14;-0.10;99.90
4964;DHT22;2497;47.410;9.740;2023-02-26T03:05:42;-0.10;99.90
4964;DHT22;2497;47.410;9.740;2023-02-26T03:08:11;-0.10;99.90
4964;DHT22;2497;47.410;9.740;2023-02-26T03:10:40;-0.10;99.90
4964;DHT22;2497;47.410;9.740;2023-02-26T03:13:14;-0.10;99.90
4964;DHT22;2497;47.410;9.740;2023-02-26T03:15:51;0.00;99.90
4964;DHT22;2497;47.410;9.740;2023-02-26T03:18:30;0.00;99.90
4964;DHT22;2497;47.410;9.740;2023-02-26T03:21:05;0.00;99.90
4964;DHT22;2497;47.410;9.740;2023-02-26T03:23:37;0.00;99.90
4964;DHT22;2497;47.410;9.740;2023-02-26T03:26:10;-0.10;99.90
4964;DHT22;2497;47.410;9.740;2023-02-26T03:28:43;-0.10;99.90
4964;DHT22;2497;47.410;9.740;2023-02-26T03:31:17;0.00;99.90
4964;DHT22;2497;47.410;9.740;2023-02-26T03:33:53;-0.10;99.90
4964;DHT22;2497;47.410;9.740;2023-02-26T03:36:23;-0.10;99.90
4964;DHT22;2497;47.410;9.740;2023-02-26T03:38:56;0.00;99.90
4964;DHT22;2497;47.410;9.740;2023-02-26T03:41:29;0.00;99.90
4964;DHT22;2497;47.410;9.740;2023-02-26T03:44:00;-0.10;99.90
4964;DHT22;2497;47.410;9.740;2023-02-26T03:46:33;-0.10;99.90
4964;DHT22;2497;47.410;9.740;2023-02-26T03:49:06;-0.10;99.90
4964;DHT22;2497;47.410;9.740;2023-02-26T03:51:36;-0.10;99.90
4964;DHT22;2497;47.410;9.740;2023-02-26T03:54:08;-0.10;99.90
4964;DHT22;2497;47.410;9.740;2023-02-26T03:56:39;-0.10;99.90
4964;DHT22;2497;47.410;9.740;2023-02-26T03:59:08;-0.10;99.90
4964;DHT22;2497;47.410;9.740;2023-02-26T04:01:49;-0.10;99.90
4964;DHT22;2497;47.410;9.740;2023-02-26T04:04:22;-0.10;99.90
4964;DHT22;2497;47.410;9.740;2023-02-26T04:06:51;-0.10;99.90
4964;DHT22;2497;47.410;9.740;2023-02-26T04:09:20;-0.10;99.90
4964;DHT22;2497;47.410;9.740;2023-02-26T04:11:48;-0.20;99.90
4964;DHT22;2497;47.410;9.740;2023-02-26T04:14:21;-0.20;99.90
4964;DHT22;2497;47.410;9.740;2023-02-26T04:16:48;-0.30;99.90
4964;DHT22;2497;47.410;9.740;2023-02-26T04:19:15;-0.20;99.90
4964;DHT22;2497;47.410;9.740;2023-02-26T04:21:44;-0.10;99.90
4964;DHT22;2497;47.410;9.740;2023-02-26T04:24:11;-0.10;99.90
4964;DHT22;2497;47.410;9.740;2023-02-26T04:26:39;-0.10;99.90
4964;DHT22;2497;47.410;9.740;2023-02-26T04:29:06;-0.10;99.90
4964;DHT22;2497;47.410;9.740;2023-02-26T04:31:33;-0.20;99.90
4964;DHT22;2497;47.410;9.740;2023-02-26T04:34:00;-0.20;99.90
4964;DHT22;2497;47.410;9.740;2023-02-26T04:36:28;-0.30;99.90
4964;DHT22;2497;47.410;9.740;2023-02-26T04:38:56;-0.30;99.90
4964;DHT22;2497;47.410;9.740;2023-02-26T04:41:24;-0.30;99.90
4964;DHT22;2497;47.410;9.740;2023-02-26T04:43:51;-0.30;99.90
4964;DHT22;2497;47.410;9.740;2023-02-26T04:46:18;-0.30;99.90
4964;DHT22;2497;47.410;9.740;2023-02-26T04:48:45;-0.30;99.90
4964;DHT22;2497;47.410;9.740;2023-02-26T04:51:12;-0.30;99.90
4964;DHT22;2497;47.410;9.740;2023-02-26T04:53:40;-0.30;99.90
4964;DHT22;2497;47.410;9.740;2023-02-26T04:56:08;-0.30;99.90
4964;DHT22;2497;47.410;9.740;2023-02-26T04:58:36;-0.20;99.90
4964;DHT22;2497;47.410;9.740;2023-02-26T05:01:03;-0.20;99.90
4964;DHT22;2497;47.410;9.740;2023-02-26T05:03:30;-0.30;99.90
4964;DHT22;2497;47.410;9.740;2023-02-26T05:05:57;-0.30;99.90
4964;DHT22;2497;47.410;9.740;2023-02-26T05:08:25;-0.30;99.90
4964;DHT22;2497;47.410;9.740;2023-02-26T05:10:52;-0.30;99.90
4964;DHT22;2497;47.410;9.740;2023-02-26T05:13:20;-0.30;99.90
4964;DHT22;2497;47.410;9.740;2023-02-26T05:15:47;-0.40;99.90
4964;DHT22;2497;47.410;9.740;2023-02-26T05:18:15;-0.40;99.90
4964;DHT22;2497;47.410;9.740;2023-02-26T05:20:42;-0.40;99.90
4964;DHT22;2497;47.410;9.740;2023-02-26T05:23:09;-0.40;99.90
4964;DHT22;2497;47.410;9.740;2023-02-26T05:25:36;-0.50;99.90
4964;DHT22;2497;47.410;9.740;2023-02-26T05:28:03;-0.60;99.90
4964;DHT22;2497;47.410;9.740;2023-02-26T05:30:32;-0.60;99.90
4964;DHT22;2497;47.410;9.740;2023-02-26T05:32:59;-0.60;99.90
4964;DHT22;2497;47.410;9.740;2023-02-26T05:35:26;-0.70;99.90
4964;DHT22;2497;47.410;9.740;2023-02-26T05:37:53;-0.70;99.90
4964;DHT22;2497;47.410;9.740;2023-02-26T05:40:20;-0.70;99.90
4964;DHT22;2497;47.410;9.740;2023-02-26T05:42:48;-0.80;99.90
4964;DHT22;2497;47.410;9.740;2023-02-26T05:45:17;-0.80;99.90
4964;DHT22;2497;47.410;9.740;2023-02-26T05:47:45;-0.80;99.90
4964;DHT22;2497;47.410;9.740;2023-02-26T05:50:12;-0.90;99.90
4964;DHT22;2497;47.410;9.740;2023-02-26T05:52:39;-0.90;99.90
4964;DHT22;2497;47.410;9.740;2023-02-26T05:55:08;-0.90;99.90
4964;DHT22;2497;47.410;9.740;2023-02-26T05:57:35;-1.00;99.90
4964;DHT22;2497;47.410;9.740;2023-02-26T06:00:04;-1.00;99.90
4964;DHT22;2497;47.410;9.740;2023-02-26T06:02:31;-1.00;99.90
4964;DHT22;2497;47.410;9.740;2023-02-26T06:04:59;-1.10;99.90
4964;DHT22;2497;47.410;9.740;2023-02-26T06:07:26;-1.00;99.90
4964;DHT22;2497;47.410;9.740;2023-02-26T06:09:54;-1.00;99.90
4964;DHT22;2497;47.410;9.740;2023-02-26T06:12:21;-1.00;99.90
4964;DHT22;2497;47.410;9.740;2023-02-26T06:14:48;-1.00;99.90
4964;DHT22;2497;47.410;9.740;2023-02-26T06:17:15;-1.00;99.90
4964;DHT22;2497;47.410;9.740;2023-02-26T06:19:42;-1.00;99.90
4964;DHT22;2497;47.410;9.740;2023-02-26T06:22:11;-1.00;99.90
4964;DHT22;2497;47.410;9.740;2023-02-26T06:24:38;-1.10;99.90
4964;DHT22;2497;47.410;9.740;2023-02-26T06:27:05;-1.10;99.90
4964;DHT22;2497;47.410;9.740;2023-02-26T06:29:33;-1.00;99.90
4964;DHT22;2497;47.410;9.740;2023-02-26T06:32:02;-1.00;99.90
4964;DHT22;2497;47.410;9.740;2023-02-26T06:34:29;-1.00;99.90
4964;DHT22;2497;47.410;9.740;2023-02-26T06:36:56;-0.90;99.90
4964;DHT22;2497;47.410;9.740;2023-02-26T06:39:24;-0.90;99.90
4964;DHT22;2497;47.410;9.740;2023-02-26T06:41:52;-1.00;99.90
4964;DHT22;2497;47.410;9.740;2023-02-26T06:44:19;-0.90;99.90
4964;DHT22;2497;47.410;9.740;2023-02-26T06:46:46;-0.90;99.90
4964;DHT22;2497;47.410;9.740;2023-02-26T06:49:13;-1.00;99.90
4964;DHT22;2497;47.410;9.740;2023-02-26T06:51:40;-1.00;99.90
4964;DHT22;2497;47.410;9.740;2023-02-26T06:54:07;-1.00;99.90
4964;DHT22;2497;47.410;9.740;2023-02-26T06:56:36;-1.00;99.90
4964;DHT22;2497;47.410;9.740;2023-02-26T06:59:03;-1.00;99.90
4964;DHT22;2497;47.410;9.740;2023-02-26T07:01:30;-1.00;99.90
4964;DHT22;2497;47.410;9.740;2023-02-26T07:03:58;-1.00;99.90
4964;DHT22;2497;47.410;9.740;2023-02-26T07:06:25;-0.90;99.90
4964;DHT22;2497;47.410;9.740;2023-02-26T07:08:52;-0.90;99.90
4964;DHT22;2497;47.410;9.740;2023-02-26T07:11:19;-0.90;99.90
4964;DHT22;2497;47.410;9.740;2023-02-26T07:13:48;-0.90;99.90
4964;DHT22;2497;47.410;9.740;2023-02-26T07:16:16;-0.90;99.90
4964;DHT22;2497;47.410;9.740;2023-02-26T07:18:43;-0.90;99.90
4964;DHT22;2497;47.410;9.740;2023-02-26T07:21:10;-0.90;99.90
4964;DHT22;2497;47.410;9.740;2023-02-26T07:23:37;-0.80;99.90
4964;DHT22;2497;47.410;9.740;2023-02-26T07:26:05;-0.80;99.90
4964;DHT22;2497;47.410;9.740;2023-02-26T07:28:33;-0.70;99.90
4964;DHT22;2497;47.410;9.740;2023-02-26T07:31:02;-0.70;99.90
4964;DHT22;2497;47.410;9.740;2023-02-26T07:33:29;-0.60;99.90
4964;DHT22;2497;47.410;9.740;2023-02-26T07:35:56;-0.50;99.90
4964;DHT22;2497;47.410;9.740;2023-02-26T07:38:23;-0.40;99.90
4964;DHT22;2497;47.410;9.740;2023-02-26T07:40:53;-0.40;99.90
4964;DHT22;2497;47.410;9.740;2023-02-26T07:43:20;-0.30;99.90
4964;DHT22;2497;47.410;9.740;2023-02-26T07:45:49;-0.30;99.90
4964;DHT22;2497;47.410;9.740;2023-02-26T07:48:17;-0.30;99.90
4964;DHT22;2497;47.410;9.740;2023-02-26T07:50:45;-0.20;99.90
4964;DHT22;2497;47.410;9.740;2023-02-26T07:53:12;-0.20;99.90
4964;DHT22;2497;47.410;9.740;2023-02-26T07:55:40;-0.10;99.90
4964;DHT22;2497;47.410;9.740;2023-02-26T07:58:07;0.00;99.90
4964;DHT22;2497;47.410;9.740;2023-02-26T08:00:34;-0.10;99.90
4964;DHT22;2497;47.410;9.740;2023-02-26T08:03:01;-0.10;99.90
4964;DHT22;2497;47.410;9.740;2023-02-26T08:05:30;-0.10;99.90
4964;DHT22;2497;47.410;9.740;2023-02-26T08:07:57;-0.20;99.90
4964;DHT22;2497;47.410;9.740;2023-02-26T08:10:26;-0.30;99.90
4964;DHT22;2497;47.410;9.740;2023-02-26T08:12:54;-0.30;99.90
4964;DHT22;2497;47.410;9.740;2023-02-26T08:15:21;-0.20;99.90
4964;DHT22;2497;47.410;9.740;2023-02-26T08:17:50;-0.20;99.90
4964;DHT22;2497;47.410;9.740;2023-02-26T08:20:17;-0.10;99.90
4964;DHT22;2497;47.410;9.740;2023-02-26T08:22:46;-0.10;99.90
4964;DHT22;2497;47.410;9.740;2023-02-26T08:25:13;-0.20;99.90
4964;DHT22;2497;47.410;9.740;2023-02-26T08:27:40;0.00;99.90
4964;DHT22;2497;47.410;9.740;2023-02-26T08:30:09;0.00;99.90
4964;DHT22;2497;47.410;9.740;2023-02-26T08:32:36;0.10;99.90
4964;DHT22;2497;47.410;9.740;2023-02-26T08:35:07;0.00;99.90
4964;DHT22;2497;47.410;9.740;2023-02-26T08:37:34;-0.10;99.90
4964;DHT22;2497;47.410;9.740;2023-02-26T08:40:03;0.20;99.90
4964;DHT22;2497;47.410;9.740;2023-02-26T08:42:33;0.10;99.90
4964;DHT22;2497;47.410;9.740;2023-02-26T08:45:00;0.10;99.90
4964;DHT22;2497;47.410;9.740;2023-02-26T08:47:27;0.30;99.90
4964;DHT22;2497;47.410;9.740;2023-02-26T08:49:55;0.30;99.90
4964;DHT22;2497;47.410;9.740;2023-02-26T08:52:23;0.50;99.90
4964;DHT22;2497;47.410;9.740;2023-02-26T08:54:51;0.70;99.90
4964;DHT22;2497;47.410;9.740;2023-02-26T08:57:20;0.70;99.90
4964;DHT22;2497;47.410;9.740;2023-02-26T08:59:47;0.70;99.90
4964;DHT22;2497;47.410;9.740;2023-02-26T09:02:14;0.70;99.90
4964;DHT22;2497;47.410;9.740;2023-02-26T09:04:41;0.70;99.90
4964;DHT22;2497;47.410;9.740;2023-02-26T09:07:08;0.80;99.90
4964;DHT22;2497;47.410;9.740;2023-02-26T09:09:36;0.90;99.90
4964;DHT22;2497;47.410;9.740;2023-02-26T09:12:03;1.00;99.90
4964;DHT22;2497;47.410;9.740;2023-02-26T09:14:32;1.00;99.90
4964;DHT22;2497;47.410;9.740;2023-02-26T09:17:00;1.10;99.90
4964;DHT22;2497;47.410;9.740;2023-02-26T09:19:28;1.10;99.90
4964;DHT22;2497;47.410;9.740;2023-02-26T09:21:55;1.20;99.90
4964;DHT22;2497;47.410;9.740;2023-02-26T09:24:22;1.20;99.90
4964;DHT22;2497;47.410;9.740;2023-02-26T09:26:49;1.20;99.90
4964;DHT22;2497;47.410;9.740;2023-02-26T09:29:16;1.10;99.90
4964;DHT22;2497;47.410;9.740;2023-02-26T09:31:45;1.10;99.90
4964;DHT22;2497;47.410;9.740;2023-02-26T09:34:12;1.10;99.90
4964;DHT22;2497;47.410;9.740;2023-02-26T09:36:40;1.20;99.90
4964;DHT22;2497;47.410;9.740;2023-02-26T09:39:09;1.20;99.90
4964;DHT22;2497;47.410;9.740;2023-02-26T09:41:38;1.30;99.90
4964;DHT22;2497;47.410;9.740;2023-02-26T09:44:15;1.20;99.90
4964;DHT22;2497;47.410;9.740;2023-02-26T09:46:54;1.00;99.90
4964;DHT22;2497;47.410;9.740;2023-02-26T09:49:34;1.10;99.90
4964;DHT22;2497;47.410;9.740;2023-02-26T09:52:10;1.30;99.90
4964;DHT22;2497;47.410;9.740;2023-02-26T09:54:43;1.50;99.90
4964;DHT22;2497;47.410;9.740;2023-02-26T09:57:17;1.60;99.90
4964;DHT22;2497;47.410;9.740;2023-02-26T09:59:46;1.70;99.90
4964;DHT22;2497;47.410;9.740;2023-02-26T10:02:18;1.70;99.90
4964;DHT22;2497;47.410;9.740;2023-02-26T10:04:50;1.70;99.90
4964;DHT22;2497;47.410;9.740;2023-02-26T10:07:28;1.70;99.90
4964;DHT22;2497;47.410;9.740;2023-02-26T10:10:10;1.50;99.90
4964;DHT22;2497;47.410;9.740;2023-02-26T10:12:41;1.60;99.90
4964;DHT22;2497;47.410;9.740;2023-02-26T10:15:14;1.80;99.90
4964;DHT22;2497;47.410;9.740;2023-02-26T10:17:52;1.80;99.90
4964;DHT22;2497;47.410;9.740;2023-02-26T10:20:24;2.00;99.90
4964;DHT22;2497;47.410;9.740;2023-02-26T10:22:57;2.10;99.90
4964;DHT22;2497;47.410;9.740;2023-02-26T10:25:32;2.30;99.90
4964;DHT22;2497;47.410;9.740;2023-02-26T10:28:05;2.30;99.90
4964;DHT22;2497;47.410;9.740;2023-02-26T10:30:36;2.40;99.90
4964;DHT22;2497;47.410;9.740;2023-02-26T10:33:13;2.40;99.90
4964;DHT22;2497;47.410;9.740;2023-02-26T10:35:44;2.40;99.90
4964;DHT22;2497;47.410;9.740;2023-02-26T10:38:17;2.30;99.90
4964;DHT22;2497;47.410;9.740;2023-02-26T10:40:49;2.30;99.90
4964;DHT22;2497;47.410;9.740;2023-02-26T10:43:21;2.10;99.90
4964;DHT22;2497;47.410;9.740;2023-02-26T10:45:58;2.00;99.90
4964;DHT22;2497;47.410;9.740;2023-02-26T10:48:46;1.90;99.90
4964;DHT22;2497;47.410;9.740;2023-02-26T10:51:18;1.90;99.90
4964;DHT22;2497;47.410;9.740;2023-02-26T10:53:48;2.10;99.90
4964;DHT22;2497;47.410;9.740;2023-02-26T10:56:20;2.10;99.90
4964;DHT22;2497;47.410;9.740;2023-02-26T10:58:48;2.10;99.90
4964;DHT22;2497;47.410;9.740;2023-02-26T11:01:19;1.90;99.90
4964;DHT22;2497;47.410;9.740;2023-02-26T11:03:53;1.70;99.90
4964;DHT22;2497;47.410;9.740;2023-02-26T11:06:26;1.50;99.90
4964;DHT22;2497;47.410;9.740;2023-02-26T11:08:55;1.50;99.90
4964;DHT22;2497;47.410;9.740;2023-02-26T11:11:41;1.60;99.90
4964;DHT22;2497;47.410;9.740;2023-02-26T11:14:11;1.90;99.90
4964;DHT22;2497;47.410;9.740;2023-02-26T11:16:46;2.50;99.90
4964;DHT22;2497;47.410;9.740;2023-02-26T11:19:22;3.10;99.90
4964;DHT22;2497;47.410;9.740;2023-02-26T11:21:51;3.40;99.90
4964;DHT22;2497;47.410;9.740;2023-02-26T11:24:28;3.50;99.90
4964;DHT22;2497;47.410;9.740;2023-02-26T11:26:58;3.40;99.90
4964;DHT22;2497;47.410;9.740;2023-02-26T11:29:34;3.40;99.90
4964;DHT22;2497;47.410;9.740;2023-02-26T11:32:04;3.60;99.90
4964;DHT22;2497;47.410;9.740;2023-02-26T11:34:33;3.40;99.90
4964;DHT22;2497;47.410;9.740;2023-02-26T11:37:03;3.70;99.90
4964;DHT22;2497;47.410;9.740;2023-02-26T11:39:33;4.20;99.90
4964;DHT22;2497;47.410;9.740;2023-02-26T11:42:03;4.60;99.90
4964;DHT22;2497;47.410;9.740;2023-02-26T11:44:34;4.90;99.90
4964;DHT22;2497;47.410;9.740;2023-02-26T11:47:12;5.00;99.90
4964;DHT22;2497;47.410;9.740;2023-02-26T11:49:44;4.80;99.90
4964;DHT22;2497;47.410;9.740;2023-02-26T11:52:21;4.50;99.90
4964;DHT22;2497;47.410;9.740;2023-02-26T11:54:56;4.60;99.90
4964;DHT22;2497;47.410;9.740;2023-02-26T11:57:27;4.90;99.90
4964;DHT22;2497;47.410;9.740;2023-02-26T11:59:57;5.40;99.90
4964;DHT22;2497;47.410;9.740;2023-02-26T12:02:26;6.00;99.90
4964;DHT22;2497;47.410;9.740;2023-02-26T12:05:05;6.10;99.90
4964;DHT22;2497;47.410;9.740;2023-02-26T12:07:33;5.70;99.90
4964;DHT22;2497;47.410;9.740;2023-02-26T12:10:00;5.50;99.90
4964;DHT22;2497;47.410;9.740;2023-02-26T12:12:52;5.50;99.90
4964;DHT22;2497;47.410;9.740;2023-02-26T12:15:29;6.20;99.90
4964;DHT22;2497;47.410;9.740;2023-02-26T12:18:21;6.70;99.90
4964;DHT22;2497;47.410;9.740;2023-02-26T12:21:01;7.40;99.90
4964;DHT22;2497;47.410;9.740;2023-02-26T12:23:55;7.30;99.90
4964;DHT22;2497;47.410;9.740;2023-02-26T12:26:32;7.40;99.90
4964;DHT22;2497;47.410;9.740;2023-02-26T12:32:16;7.80;99.90
4964;DHT22;2497;47.410;9.740;2023-02-26T12:37:51;5.60;99.90
4964;DHT22;2497;47.410;9.740;2023-02-26T12:40:42;4.90;99.90
4964;DHT22;2497;47.410;9.740;2023-02-26T12:43:18;4.70;99.90
4964;DHT22;2497;47.410;9.740;2023-02-26T12:45:53;4.50;99.90
4964;DHT22;2497;47.410;9.740;2023-02-26T12:48:53;4.50;99.90
4964;DHT22;2497;47.410;9.740;2023-02-26T12:51:36;4.70;99.90
4964;DHT22;2497;47.410;9.740;2023-02-26T12:54:22;4.60;99.90
4964;DHT22;2497;47.410;9.740;2023-02-26T12:57:07;5.40;99.90
4964;DHT22;2497;47.410;9.740;2023-02-26T12:59:59;6.30;99.90
4964;DHT22;2497;47.410;9.740;2023-02-26T13:06:01;5.40;99.90
4964;DHT22;2497;47.410;9.740;2023-02-26T13:08:36;6.70;99.90
4964;DHT22;2497;47.410;9.740;2023-02-26T13:11:18;6.20;99.90
4964;DHT22;2497;47.410;9.740;2023-02-26T13:13:59;6.10;99.90
4964;DHT22;2497;47.410;9.740;2023-02-26T13:16:38;5.90;99.90
4964;DHT22;2497;47.410;9.740;2023-02-26T13:19:14;5.10;99.90
4964;DHT22;2497;47.410;9.740;2023-02-26T13:21:46;4.50;99.90
4964;DHT22;2497;47.410;9.740;2023-02-26T13:24:19;4.10;99.90
4964;DHT22;2497;47.410;9.740;2023-02-26T13:26:50;3.70;99.90
4964;DHT22;2497;47.410;9.740;2023-02-26T13:29:23;3.50;99.90
4964;DHT22;2497;47.410;9.740;2023-02-26T13:31:57;3.50;99.90
4964;DHT22;2497;47.410;9.740;2023-02-26T13:34:35;3.10;99.90
4964;DHT22;2497;47.410;9.740;2023-02-26T13:37:04;3.30;99.90
4964;DHT22;2497;47.410;9.740;2023-02-26T13:39:41;3.40;99.90
4964;DHT22;2497;47.410;9.740;2023-02-26T13:42:21;3.50;99.90
4964;DHT22;2497;47.410;9.740;2023-02-26T13:45:02;3.70;99.90
4964;DHT22;2497;47.410;9.740;2023-02-26T13:47:51;3.60;99.90
4964;DHT22;2497;47.410;9.740;2023-02-26T13:50:28;4.00;99.90
4964;DHT22;2497;47.410;9.740;2023-02-26T13:53:02;4.10;99.90
4964;DHT22;2497;47.410;9.740;2023-02-26T13:55:42;3.80;99.90
4964;DHT22;2497;47.410;9.740;2023-02-26T13:58:28;3.80;99.90
4964;DHT22;2497;47.410;9.740;2023-02-26T14:01:05;3.70;99.90
4964;DHT22;2497;47.410;9.740;2023-02-26T14:03:35;3.20;99.90
4964;DHT22;2497;47.410;9.740;2023-02-26T14:06:19;3.40;99.90
4964;DHT22;2497;47.410;9.740;2023-02-26T14:08:53;3.10;99.90
4964;DHT22;2497;47.410;9.740;2023-02-26T14:11:36;2.70;99.90
4964;DHT22;2497;47.410;9.740;2023-02-26T14:14:17;2.80;99.90
4964;DHT22;2497;47.410;9.740;2023-02-26T14:16:49;3.20;99.90
4964;DHT22;2497;47.410;9.740;2023-02-26T14:19:25;3.40;99.90
4964;DHT22;2497;47.410;9.740;2023-02-26T14:21:53;3.60;99.90
4964;DHT22;2497;47.410;9.740;2023-02-26T14:24:30;3.70;99.90
4964;DHT22;2497;47.410;9.740;2023-02-26T14:27:30;3.90;99.90
4964;DHT22;2497;47.410;9.740;2023-02-26T14:30:20;3.70;99.90
4964;DHT22;2497;47.410;9.740;2023-02-26T14:32:55;3.60;99.90
4964;DHT22;2497;47.410;9.740;2023-02-26T14:35:35;3.50;99.90
4964;DHT22;2497;47.410;9.740;2023-02-26T14:38:17;3.60;99.90
4964;DHT22;2497;47.410;9.740;2023-02-26T14:40:53;3.50;99.90
4964;DHT22;2497;47.410;9.740;2023-02-26T14:43:30;3.50;99.90
4964;DHT22;2497;47.410;9.740;2023-02-26T14:46:03;4.30;99.90
4964;DHT22;2497;47.410;9.740;2023-02-26T14:48:32;5.20;99.90
4964;DHT22;2497;47.410;9.740;2023-02-26T14:51:11;6.30;99.90
4964;DHT22;2497;47.410;9.740;2023-02-26T14:53:58;6.20;99.90
4964;DHT22;2497;47.410;9.740;2023-02-26T14:56:46;6.10;99.90
4964;DHT22;2497;47.410;9.740;2023-02-26T14:59:28;5.90;99.90
4964;DHT22;2497;47.410;9.740;2023-02-26T15:02:04;5.50;99.90
4964;DHT22;2497;47.410;9.740;2023-02-26T15:04:55;5.40;99.90
4964;DHT22;2497;47.410;9.740;2023-02-26T15:07:37;5.70;99.90
4964;DHT22;2497;47.410;9.740;2023-02-26T15:10:30;5.70;99.90
4964;DHT22;2497;47.410;9.740;2023-02-26T15:13:24;5.70;99.90
4964;DHT22;2497;47.410;9.740;2023-02-26T15:15:56;5.70;99.90
4964;DHT22;2497;47.410;9.740;2023-02-26T15:18:45;6.20;99.90
4964;DHT22;2497;47.410;9.740;2023-02-26T15:21:20;6.80;99.90
4964;DHT22;2497;47.410;9.740;2023-02-26T15:23:52;7.00;99.90
4964;DHT22;2497;47.410;9.740;2023-02-26T15:26:24;6.80;99.90
4964;DHT22;2497;47.410;9.740;2023-02-26T15:28:53;6.30;99.90
4964;DHT22;2497;47.410;9.740;2023-02-26T15:31:29;5.60;99.90
4964;DHT22;2497;47.410;9.740;2023-02-26T15:34:00;5.20;99.90
4964;DHT22;2497;47.410;9.740;2023-02-26T15:36:29;5.10;99.90
4964;DHT22;2497;47.410;9.740;2023-02-26T15:38:59;5.50;99.90
4964;DHT22;2497;47.410;9.740;2023-02-26T15:41:30;5.60;99.90
4964;DHT22;2497;47.410;9.740;2023-02-26T15:44:01;5.60;99.90
4964;DHT22;2497;47.410;9.740;2023-02-26T15:46:32;6.00;99.90
4964;DHT22;2497;47.410;9.740;2023-02-26T15:49:06;6.80;99.90
4964;DHT22;2497;47.410;9.740;2023-02-26T15:51:35;7.40;99.90
4964;DHT22;2497;47.410;9.740;2023-02-26T15:54:04;7.90;99.90
4964;DHT22;2497;47.410;9.740;2023-02-26T15:56:35;7.70;99.90
4964;DHT22;2497;47.410;9.740;2023-02-26T15:59:09;7.50;99.90
4964;DHT22;2497;47.410;9.740;2023-02-26T16:01:40;6.30;99.90
4964;DHT22;2497;47.410;9.740;2023-02-26T16:04:15;5.60;99.90
4964;DHT22;2497;47.410;9.740;2023-02-26T16:06:45;5.50;99.90
4964;DHT22;2497;47.410;9.740;2023-02-26T16:09:17;4.90;99.90
4964;DHT22;2497;47.410;9.740;2023-02-26T16:11:47;4.80;99.90
4964;DHT22;2497;47.410;9.740;2023-02-26T16:14:19;4.30;99.90
4964;DHT22;2497;47.410;9.740;2023-02-26T16:16:49;3.70;99.90
4964;DHT22;2497;47.410;9.740;2023-02-26T16:19:22;4.00;99.90
4964;DHT22;2497;47.410;9.740;2023-02-26T16:21:55;3.60;99.90
4964;DHT22;2497;47.410;9.740;2023-02-26T16:24:29;3.20;99.90
4964;DHT22;2497;47.410;9.740;2023-02-26T16:27:01;3.00;99.90
4964;DHT22;2497;47.410;9.740;2023-02-26T16:29:31;2.70;99.90
4964;DHT22;2497;47.410;9.740;2023-02-26T16:32:02;2.50;99.90
4964;DHT22;2497;47.410;9.740;2023-02-26T16:34:35;2.20;99.90
4964;DHT22;2497;47.410;9.740;2023-02-26T16:37:19;2.00;99.90
4964;DHT22;2497;47.410;9.740;2023-02-26T16:39:56;1.80;99.90
4964;DHT22;2497;47.410;9.740;2023-02-26T16:42:35;1.70;99.90
4964;DHT22;2497;47.410;9.740;2023-02-26T16:45:21;1.40;99.90
4964;DHT22;2497;47.410;9.740;2023-02-26T16:47:56;1.20;99.90
4964;DHT22;2497;47.410;9.740;2023-02-26T16:50:30;1.00;99.90
4964;DHT22;2497;47.410;9.740;2023-02-26T16:53:00;0.90;99.90
4964;DHT22;2497;47.410;9.740;2023-02-26T16:55:30;0.80;99.90
4964;DHT22;2497;47.410;9.740;2023-02-26T16:58:03;0.70;99.90
4964;DHT22;2497;47.410;9.740;2023-02-26T17:00:33;0.50;99.90